Time;durP1;ratioP1;P1;durP2;ratioP2;P2;SDS_P1;SDS_P2;PMS_P1;PMS_P2;Temp;Humidity;BMP_temperature;BMP_pressure;BME280_temperature;BME280_humidity;BME280_pressure;Samples;Min_cycle;Max_cycle;Signal;HPM_P1;HPM_P2
2023/03/22 00:02:29;;;;;;;8.88;5.78;;;;;;;;;;4945305;29;20027;-71
2023/03/22 00:04:54;;;;;;;9.55;5.30;;;;;;;;;;4923709;29;20099;-71
2023/03/22 00:07:20;;;;;;;8.05;5.70;;;;;;;;;;4933796;29;20039;-71
2023/03/22 00:09:45;;;;;;;6.30;5.15;;;;;;;;;;4925793;29;20036;-72
2023/03/22 00:12:10;;;;;;;9.00;5.53;;;;;;;;;;4925146;29;20511;-73
2023/03/22 00:14:36;;;;;;;7.35;5.15;;;;;;;;;;4928667;29;20052;-73
2023/03/22 00:17:01;;;;;;;9.15;5.63;;;;;;;;;;4925064;29;20052;-72
2023/03/22 00:19:32;;;;;;;7.03;5.28;;;;;;;;;;4925602;29;20040;-73
2023/03/22 00:21:59;;;;;;;7.75;6.05;;;;;;;;;;4925521;29;20138;-73
2023/03/22 00:24:25;;;;;;;6.80;5.30;;;;;;;;;;4928498;29;20066;-73
2023/03/22 00:26:50;;;;;;;7.05;4.57;;;;;;;;;;4925165;29;20442;-73
2023/03/22 00:29:16;;;;;;;11.50;6.07;;;;;;;;;;4924173;29;20051;-72
2023/03/22 00:31:41;;;;;;;8.45;6.00;;;;;;;;;;4924314;29;20047;-75
2023/03/22 00:34:07;;;;;;;8.48;5.80;;;;;;;;;;4924031;29;20135;-75
2023/03/22 00:36:32;;;;;;;11.20;5.97;;;;;;;;;;4925302;29;20051;-75
2023/03/22 00:38:58;;;;;;;7.00;5.30;;;;;;;;;;4924638;29;20430;-74
2023/03/22 00:41:24;;;;;;;9.25;4.93;;;;;;;;;;4924097;29;20071;-74
2023/03/22 00:43:50;;;;;;;8.18;5.28;;;;;;;;;;4925195;29;20925;-75
2023/03/22 00:46:18;;;;;;;11.05;5.38;;;;;;;;;;4924764;29;20043;-74
2023/03/22 00:48:44;;;;;;;10.02;5.35;;;;;;;;;;4924627;29;20408;-74
2023/03/22 00:51:10;;;;;;;6.38;4.78;;;;;;;;;;4923789;29;20050;-73
2023/03/22 00:53:37;;;;;;;11.80;5.13;;;;;;;;;;4915834;29;20039;-73
2023/03/22 00:56:06;;;;;;;9.32;5.10;;;;;;;;;;4908632;29;20047;-73
2023/03/22 00:58:42;;;;;;;10.70;5.07;;;;;;;;;;4906901;29;20052;-73
2023/03/22 01:01:08;;;;;;;8.40;5.28;;;;;;;;;;4923749;29;20047;-73
2023/03/22 01:03:33;;;;;;;6.13;5.03;;;;;;;;;;4907822;29;20047;-75
2023/03/22 01:05:59;;;;;;;8.40;5.00;;;;;;;;;;4921806;29;20051;-76
2023/03/22 01:08:31;;;;;;;7.50;4.78;;;;;;;;;;4921691;29;20445;-72
2023/03/22 01:10:57;;;;;;;9.05;5.18;;;;;;;;;;4921300;29;20047;-72
2023/03/22 01:13:23;;;;;;;6.63;5.10;;;;;;;;;;4921213;29;20103;-73
2023/03/22 01:15:50;;;;;;;9.05;5.50;;;;;;;;;;4910888;29;20044;-73
2023/03/22 01:18:16;;;;;;;5.97;5.13;;;;;;;;;;4907591;29;20649;-72
2023/03/22 01:20:41;;;;;;;6.07;4.85;;;;;;;;;;4923722;29;20058;-72
2023/03/22 01:23:07;;;;;;;5.40;4.90;;;;;;;;;;4923401;29;20499;-73
2023/03/22 01:25:32;;;;;;;8.18;5.25;;;;;;;;;;4922129;29;20072;-73
2023/03/22 01:27:58;;;;;;;7.82;5.32;;;;;;;;;;4923097;29;20424;-73
2023/03/22 01:30:23;;;;;;;6.55;5.05;;;;;;;;;;4924393;29;20546;-73
2023/03/22 01:32:49;;;;;;;6.13;4.40;;;;;;;;;;4922610;29;20044;-74
2023/03/22 01:35:16;;;;;;;6.07;4.60;;;;;;;;;;4922986;29;20075;-73
2023/03/22 01:37:41;;;;;;;6.68;4.80;;;;;;;;;;4910841;29;20098;-73
2023/03/22 01:40:10;;;;;;;10.43;5.10;;;;;;;;;;4906810;29;21009;-74
2023/03/22 01:42:36;;;;;;;5.40;4.75;;;;;;;;;;4907123;29;20633;-74
2023/03/22 01:45:13;;;;;;;6.38;5.30;;;;;;;;;;4921613;29;20194;-74
2023/03/22 01:47:44;;;;;;;6.00;4.93;;;;;;;;;;4922456;29;20073;-73
2023/03/22 01:50:10;;;;;;;11.20;5.00;;;;;;;;;;4907067;29;20066;-74
2023/03/22 01:52:37;;;;;;;6.28;4.80;;;;;;;;;;4924208;29;20518;-73
2023/03/22 01:55:08;;;;;;;7.93;5.75;;;;;;;;;;4922030;29;20047;-74
2023/03/22 01:57:44;;;;;;;7.53;5.00;;;;;;;;;;4922539;29;20561;-73
2023/03/22 02:00:17;;;;;;;6.03;5.15;;;;;;;;;;4912833;29;20051;-73
2023/03/22 02:03:05;;;;;;;6.82;5.05;;;;;;;;;;4922814;29;20052;-72
2023/03/22 02:05:36;;;;;;;6.43;5.00;;;;;;;;;;4922339;29;20047;-73
2023/03/22 02:08:03;;;;;;;6.45;5.10;;;;;;;;;;4922239;29;20047;-73
2023/03/22 02:10:46;;;;;;;9.93;4.90;;;;;;;;;;4910199;29;20046;-73
2023/03/22 02:13:37;;;;;;;7.70;5.25;;;;;;;;;;4921991;29;20051;-74
2023/03/22 02:16:49;;;;;;;9.10;5.63;;;;;;;;;;4923942;29;20054;-73
2023/03/22 02:19:30;;;;;;;6.50;5.40;;;;;;;;;;4906084;29;20450;-73
2023/03/22 02:22:41;;;;;;;6.38;5.15;;;;;;;;;;4921684;29;20866;-73
2023/03/22 02:26:01;;;;;;;6.05;5.45;;;;;;;;;;4905460;29;20036;-73
2023/03/22 02:28:46;;;;;;;6.18;4.95;;;;;;;;;;4857093;29;20080;-73
2023/03/22 02:31:46;;;;;;;7.15;5.57;;;;;;;;;;4880859;29;20039;-73
2023/03/22 02:34:15;;;;;;;8.93;5.35;;;;;;;;;;4918240;29;20281;-73
2023/03/22 02:37:17;;;;;;;7.38;5.07;;;;;;;;;;4899507;29;20047;-76
2023/03/22 02:40:05;;;;;;;7.45;5.85;;;;;;;;;;4921919;29;20047;-76
2023/03/22 02:42:36;;;;;;;6.78;5.50;;;;;;;;;;4922850;29;21037;-75
2023/03/22 02:45:14;;;;;;;5.65;4.68;;;;;;;;;;4905098;29;20059;-74
2023/03/22 02:48:00;;;;;;;6.78;5.00;;;;;;;;;;4922269;29;20130;-75
2023/03/22 02:50:32;;;;;;;6.18;4.85;;;;;;;;;;4921662;29;20414;-75
2023/03/22 02:53:03;;;;;;;9.63;5.68;;;;;;;;;;4925481;29;20737;-75
2023/03/22 02:55:31;;;;;;;5.80;4.82;;;;;;;;;;4927146;29;20050;-75
2023/03/22 02:58:05;;;;;;;6.60;5.32;;;;;;;;;;4910716;29;20130;-75
2023/03/22 03:00:32;;;;;;;6.85;5.88;;;;;;;;;;4923521;29;20047;-75
2023/03/22 03:03:10;;;;;;;7.32;5.70;;;;;;;;;;4922716;29;20481;-76
2023/03/22 03:05:38;;;;;;;7.32;5.50;;;;;;;;;;4922462;29;20130;-76
2023/03/22 03:08:05;;;;;;;10.27;5.45;;;;;;;;;;4922648;29;20507;-75
2023/03/22 03:10:33;;;;;;;10.07;6.07;;;;;;;;;;4905899;29;20055;-75
2023/03/22 03:12:59;;;;;;;7.93;6.45;;;;;;;;;;4905404;29;20051;-75
2023/03/22 03:15:24;;;;;;;6.60;5.80;;;;;;;;;;4920926;29;20734;-75
2023/03/22 03:18:15;;;;;;;8.70;6.10;;;;;;;;;;4922922;29;20043;-75
2023/03/22 03:21:09;;;;;;;8.57;5.95;;;;;;;;;;4920732;29;20443;-75
2023/03/22 03:24:09;;;;;;;8.70;6.15;;;;;;;;;;4910231;29;20059;-73
2023/03/22 03:27:11;;;;;;;11.23;6.13;;;;;;;;;;4921905;29;20135;-73
2023/03/22 03:29:46;;;;;;;8.65;5.90;;;;;;;;;;4906992;29;20588;-73
2023/03/22 03:32:21;;;;;;;11.20;5.57;;;;;;;;;;4923266;29;20519;-72
2023/03/22 03:35:21;;;;;;;8.63;5.97;;;;;;;;;;4924255;29;20063;-72
2023/03/22 03:37:51;;;;;;;8.70;6.00;;;;;;;;;;4926591;29;20051;-72
2023/03/22 03:40:22;;;;;;;9.73;5.97;;;;;;;;;;4922641;29;20047;-72
2023/03/22 03:42:51;;;;;;;7.25;5.80;;;;;;;;;;4926743;29;20517;-73
2023/03/22 03:45:18;;;;;;;10.52;5.82;;;;;;;;;;4922943;29;20184;-72
2023/03/22 03:47:46;;;;;;;7.15;5.80;;;;;;;;;;4924337;29;20047;-74
2023/03/22 03:50:14;;;;;;;6.63;5.78;;;;;;;;;;4928179;29;20120;-74
2023/03/22 03:52:41;;;;;;;6.65;5.90;;;;;;;;;;4925129;29;20047;-74
2023/03/22 03:55:07;;;;;;;9.88;6.20;;;;;;;;;;4925472;29;20135;-74
2023/03/22 03:57:34;;;;;;;6.55;5.85;;;;;;;;;;4924706;29;20106;-73
2023/03/22 03:59:59;;;;;;;8.85;6.22;;;;;;;;;;4930592;29;20055;-74
2023/03/22 04:02:47;;;;;;;7.32;5.63;;;;;;;;;;4922331;29;20398;-74
2023/03/22 04:05:33;;;;;;;8.65;6.20;;;;;;;;;;4925782;29;20857;-74
2023/03/22 04:07:59;;;;;;;9.80;6.13;;;;;;;;;;4908862;29;20046;-74
2023/03/22 04:10:25;;;;;;;11.73;5.75;;;;;;;;;;4907948;29;20044;-73
2023/03/22 04:12:50;;;;;;;8.63;6.43;;;;;;;;;;4923853;29;20537;-73
2023/03/22 04:15:17;;;;;;;7.93;5.60;;;;;;;;;;4924660;29;20122;-73
2023/03/22 04:17:46;;;;;;;10.00;6.53;;;;;;;;;;4924471;29;20070;-73
2023/03/22 04:20:14;;;;;;;8.18;6.75;;;;;;;;;;4924236;29;20502;-73
2023/03/22 04:22:40;;;;;;;9.35;7.03;;;;;;;;;;4914869;29;20043;-74
2023/03/22 04:25:10;;;;;;;8.57;6.88;;;;;;;;;;4925357;28;20055;-73
2023/03/22 04:27:39;;;;;;;8.05;7.10;;;;;;;;;;4925074;29;20090;-74
2023/03/22 04:30:18;;;;;;;9.63;7.03;;;;;;;;;;4908685;29;20378;-74
2023/03/22 04:33:00;;;;;;;11.23;6.40;;;;;;;;;;4936531;29;20511;-74
2023/03/22 04:35:45;;;;;;;9.10;7.00;;;;;;;;;;4909639;29;20093;-74
2023/03/22 04:38:11;;;;;;;9.90;6.85;;;;;;;;;;4912240;29;20813;-73
2023/03/22 04:40:37;;;;;;;10.40;7.43;;;;;;;;;;4924559;29;20088;-74
2023/03/22 04:43:23;;;;;;;9.23;7.15;;;;;;;;;;4929160;29;20039;-73
2023/03/22 04:45:53;;;;;;;9.77;6.88;;;;;;;;;;4923880;29;20418;-73
2023/03/22 04:48:23;;;;;;;10.98;7.50;;;;;;;;;;4924095;29;20130;-73
2023/03/22 04:50:52;;;;;;;9.10;7.15;;;;;;;;;;4923196;29;20048;-72
2023/03/22 04:53:25;;;;;;;9.25;7.25;;;;;;;;;;4924196;29;20051;-75
2023/03/22 04:55:58;;;;;;;10.57;6.95;;;;;;;;;;4928802;29;20855;-75
2023/03/22 04:58:25;;;;;;;9.13;7.18;;;;;;;;;;4907651;29;20055;-75
2023/03/22 05:00:52;;;;;;;8.52;6.55;;;;;;;;;;4891516;29;20047;-75
2023/03/22 05:03:20;;;;;;;10.45;7.70;;;;;;;;;;4913062;29;20402;-73
2023/03/22 05:05:56;;;;;;;11.18;7.18;;;;;;;;;;4912182;29;20050;-73
2023/03/22 05:08:29;;;;;;;9.35;6.97;;;;;;;;;;4925162;29;20085;-73
2023/03/22 05:10:56;;;;;;;8.35;6.93;;;;;;;;;;4922366;29;20059;-73
2023/03/22 05:13:24;;;;;;;12.88;7.45;;;;;;;;;;4911115;29;20059;-73
2023/03/22 05:15:50;;;;;;;11.05;8.00;;;;;;;;;;4922791;29;20047;-73
2023/03/22 05:18:25;;;;;;;12.45;7.53;;;;;;;;;;4915826;29;20082;-72
2023/03/22 05:20:56;;;;;;;10.88;7.82;;;;;;;;;;4912742;29;20051;-73
2023/03/22 05:23:23;;;;;;;10.85;7.82;;;;;;;;;;4923465;29;20051;-73
2023/03/22 05:25:57;;;;;;;9.45;7.65;;;;;;;;;;4914227;29;20134;-73
2023/03/22 05:28:23;;;;;;;9.45;7.50;;;;;;;;;;4925956;29;20047;-72
2023/03/22 05:30:58;;;;;;;9.55;7.90;;;;;;;;;;4912218;29;20043;-72
2023/03/22 05:33:36;;;;;;;12.35;7.22;;;;;;;;;;4915272;29;20043;-73
2023/03/22 05:36:02;;;;;;;12.98;7.47;;;;;;;;;;4923773;29;20426;-73
2023/03/22 05:38:32;;;;;;;10.25;7.03;;;;;;;;;;4909402;29;20044;-72
2023/03/22 05:40:59;;;;;;;8.98;7.22;;;;;;;;;;4922051;29;20055;-73
2023/03/22 05:43:25;;;;;;;8.80;7.07;;;;;;;;;;4923890;29;20136;-73
2023/03/22 05:45:51;;;;;;;9.45;6.95;;;;;;;;;;4910500;29;20051;-72
2023/03/22 05:48:28;;;;;;;9.02;6.75;;;;;;;;;;4913006;29;20458;-69
2023/03/22 05:50:54;;;;;;;8.02;6.78;;;;;;;;;;4927630;29;20058;-71
2023/03/22 05:53:20;;;;;;;9.93;6.97;;;;;;;;;;4909540;29;20124;-72
2023/03/22 05:55:49;;;;;;;8.35;6.57;;;;;;;;;;4930107;29;20039;-70
2023/03/22 05:58:17;;;;;;;8.80;6.03;;;;;;;;;;4912133;29;20039;-71
2023/03/22 06:00:48;;;;;;;10.95;5.70;;;;;;;;;;4920570;29;20052;-70
2023/03/22 06:03:21;;;;;;;8.05;5.90;;;;;;;;;;4923490;29;20052;-70
2023/03/22 06:09:30;;;;;;;8.68;5.32;;;;;;;;;;5434213;23;20047;-72
2023/03/22 06:11:57;;;;;;;6.95;4.90;;;;;;;;;;4923508;29;20035;-72
2023/03/22 06:14:23;;;;;;;5.95;4.68;;;;;;;;;;4923398;29;20047;-71
2023/03/22 06:17:04;;;;;;;5.67;5.07;;;;;;;;;;4939079;29;21256;-71
2023/03/22 06:19:30;;;;;;;6.35;5.32;;;;;;;;;;4925318;29;20299;-71
2023/03/22 06:21:56;;;;;;;5.22;4.70;;;;;;;;;;4924128;29;20398;-71
2023/03/22 06:24:24;;;;;;;9.65;5.03;;;;;;;;;;4924042;29;20043;-71
2023/03/22 06:26:49;;;;;;;6.45;4.78;;;;;;;;;;4923329;29;20058;-71
2023/03/22 06:29:15;;;;;;;6.88;5.10;;;;;;;;;;4924281;29;20190;-72
2023/03/22 06:31:41;;;;;;;6.47;5.00;;;;;;;;;;4925244;29;20606;-71
2023/03/22 06:34:07;;;;;;;9.00;4.95;;;;;;;;;;4923327;28;20150;-71
2023/03/22 06:36:41;;;;;;;5.47;4.18;;;;;;;;;;4941363;28;20054;-71
2023/03/22 06:39:17;;;;;;;4.35;3.95;;;;;;;;;;4900695;29;20047;-71
2023/03/22 06:41:44;;;;;;;5.65;4.00;;;;;;;;;;4924815;29;20043;-71
2023/03/22 06:44:10;;;;;;;5.00;3.72;;;;;;;;;;4923472;29;20090;-71
2023/03/22 06:46:54;;;;;;;8.60;3.42;;;;;;;;;;4939953;28;20043;-72
2023/03/22 06:49:40;;;;;;;3.40;3.10;;;;;;;;;;4941273;29;20035;-71
2023/03/22 06:52:06;;;;;;;2.88;2.65;;;;;;;;;;4923974;29;20051;-71
2023/03/22 06:54:33;;;;;;;7.47;3.00;;;;;;;;;;4924225;29;20717;-71
2023/03/22 06:56:59;;;;;;;4.80;2.88;;;;;;;;;;4922835;28;20063;-71
2023/03/22 06:59:24;;;;;;;3.00;2.55;;;;;;;;;;4924970;29;20035;-71
2023/03/22 07:01:50;;;;;;;4.25;2.85;;;;;;;;;;4923632;29;20043;-70
2023/03/22 07:04:16;;;;;;;2.65;2.45;;;;;;;;;;4941549;29;20051;-70
2023/03/22 07:06:43;;;;;;;3.20;2.90;;;;;;;;;;4916046;29;20534;-71
2023/03/22 07:09:09;;;;;;;3.83;3.42;;;;;;;;;;4908356;28;20055;-69
2023/03/22 07:11:36;;;;;;;5.78;3.30;;;;;;;;;;4924248;29;20039;-70
2023/03/22 07:14:02;;;;;;;10.98;3.97;;;;;;;;;;4923658;29;20051;-69
2023/03/22 07:16:53;;;;;;;3.80;3.05;;;;;;;;;;4923157;29;20125;-69
2023/03/22 07:19:20;;;;;;;3.65;3.25;;;;;;;;;;4922981;29;20064;-71
2023/03/22 07:21:46;;;;;;;5.30;3.10;;;;;;;;;;4925670;29;20039;-69
2023/03/22 07:24:12;;;;;;;3.95;2.67;;;;;;;;;;4928562;29;20410;-70
2023/03/22 07:26:39;;;;;;;3.20;2.88;;;;;;;;;;4927818;29;20159;-70
2023/03/22 07:29:05;;;;;;;3.28;2.97;;;;;;;;;;4926805;28;20051;-70
2023/03/22 07:31:36;;;;;;;3.72;3.15;;;;;;;;;;4927407;29;20047;-70
2023/03/22 07:34:20;;;;;;;3.58;3.15;;;;;;;;;;4927590;29;20053;-69
2023/03/22 07:37:15;;;;;;;4.40;2.72;;;;;;;;;;4916415;29;20047;-69
2023/03/22 07:39:41;;;;;;;5.50;2.80;;;;;;;;;;4927015;29;20043;-70
2023/03/22 07:42:08;;;;;;;2.38;2.17;;;;;;;;;;4927229;29;22101;-70
2023/03/22 07:44:52;;;;;;;3.63;2.45;;;;;;;;;;4943875;29;20105;-69
2023/03/22 07:47:18;;;;;;;5.57;2.80;;;;;;;;;;4944605;29;20529;-69
2023/03/22 07:50:12;;;;;;;2.92;2.53;;;;;;;;;;4927089;29;20106;-69
2023/03/22 07:52:39;;;;;;;4.35;2.42;;;;;;;;;;4926786;29;20457;-69
2023/03/22 07:55:05;;;;;;;5.53;2.53;;;;;;;;;;4942860;28;20062;-69
2023/03/22 07:57:32;;;;;;;7.00;2.58;;;;;;;;;;4944745;29;20043;-71
2023/03/22 07:59:59;;;;;;;3.42;2.78;;;;;;;;;;4927164;29;20577;-71
2023/03/22 08:02:44;;;;;;;7.15;2.55;;;;;;;;;;4943755;28;20138;-70
2023/03/22 08:05:14;;;;;;;4.82;2.58;;;;;;;;;;4909837;29;20557;-70
2023/03/22 08:07:42;;;;;;;2.40;2.20;;;;;;;;;;4927647;29;20035;-70
2023/03/22 08:10:09;;;;;;;4.47;2.88;;;;;;;;;;4927428;29;20058;-71
2023/03/22 08:12:35;;;;;;;4.72;2.05;;;;;;;;;;4927120;29;20043;-70
2023/03/22 08:15:09;;;;;;;4.65;2.00;;;;;;;;;;4926555;28;20047;-71
2023/03/22 08:17:35;;;;;;;5.35;2.10;;;;;;;;;;4927336;29;20521;-71
2023/03/22 08:20:07;;;;;;;3.05;1.70;;;;;;;;;;4925913;29;20035;-70
2023/03/22 08:22:44;;;;;;;5.00;2.25;;;;;;;;;;4912210;29;20093;-70
2023/03/22 08:25:24;;;;;;;2.50;1.83;;;;;;;;;;4942981;28;20743;-70
2023/03/22 08:27:52;;;;;;;2.50;1.70;;;;;;;;;;4926851;29;20097;-69
2023/03/22 08:30:17;;;;;;;1.92;1.63;;;;;;;;;;4926679;29;20047;-70
2023/03/22 08:32:43;;;;;;;2.22;1.80;;;;;;;;;;4941511;28;20495;-70
2023/03/22 08:35:09;;;;;;;2.65;1.60;;;;;;;;;;4940831;28;20082;-69
2023/03/22 08:37:35;;;;;;;2.65;1.50;;;;;;;;;;4925876;29;20047;-69
2023/03/22 08:40:08;;;;;;;2.08;1.67;;;;;;;;;;4925890;29;20505;-69
2023/03/22 08:42:48;;;;;;;3.40;1.95;;;;;;;;;;4925255;29;20837;-70
2023/03/22 08:45:14;;;;;;;3.90;1.77;;;;;;;;;;4923628;29;20047;-69
2023/03/22 08:47:46;;;;;;;4.63;1.77;;;;;;;;;;4925636;29;20723;-69
2023/03/22 08:50:12;;;;;;;8.05;2.05;;;;;;;;;;4926477;29;20090;-69
2023/03/22 08:52:50;;;;;;;3.25;1.90;;;;;;;;;;4925566;29;20070;-71
2023/03/22 08:55:23;;;;;;;3.70;2.13;;;;;;;;;;4926111;29;20053;-71
2023/03/22 08:58:10;;;;;;;2.40;2.20;;;;;;;;;;4942595;28;20522;-70
2023/03/22 09:00:53;;;;;;;2.10;1.90;;;;;;;;;;4942375;28;20054;-69
2023/03/22 09:03:26;;;;;;;2.75;1.90;;;;;;;;;;4926400;29;20709;-70
2023/03/22 09:05:52;;;;;;;2.67;2.00;;;;;;;;;;4925727;29;20558;-70
2023/03/22 09:08:18;;;;;;;3.88;2.33;;;;;;;;;;4942283;28;20565;-72
2023/03/22 09:10:50;;;;;;;4.75;2.40;;;;;;;;;;4924596;29;20082;-70
2023/03/22 09:13:18;;;;;;;6.43;2.20;;;;;;;;;;4942284;29;20043;-69
2023/03/22 09:15:51;;;;;;;2.65;2.13;;;;;;;;;;4925570;29;20051;-69
2023/03/22 09:18:25;;;;;;;2.65;2.13;;;;;;;;;;4925096;29;20043;-70
2023/03/22 09:20:52;;;;;;;5.15;2.17;;;;;;;;;;4925229;28;20415;-70
2023/03/22 09:23:22;;;;;;;6.72;2.10;;;;;;;;;;4925915;29;20145;-70
2023/03/22 09:25:48;;;;;;;3.35;2.08;;;;;;;;;;4943033;29;20115;-70
2023/03/22 09:28:18;;;;;;;2.28;2.08;;;;;;;;;;4926108;29;20498;-70
2023/03/22 09:30:44;;;;;;;2.75;1.67;;;;;;;;;;4924142;29;20043;-71
2023/03/22 09:33:11;;;;;;;2.20;1.90;;;;;;;;;;4925729;29;20106;-70
2023/03/22 09:35:41;;;;;;;3.40;2.20;;;;;;;;;;4925203;29;20039;-69
2023/03/22 09:38:07;;;;;;;3.78;2.20;;;;;;;;;;4925096;29;20563;-69
2023/03/22 09:40:34;;;;;;;4.13;2.50;;;;;;;;;;4924370;29;20061;-70
2023/03/22 09:43:04;;;;;;;5.45;2.38;;;;;;;;;;4924477;28;20405;-69
2023/03/22 09:45:42;;;;;;;3.10;2.38;;;;;;;;;;4941298;28;20039;-70
2023/03/22 09:48:32;;;;;;;2.83;2.20;;;;;;;;;;4942600;29;20048;-70
2023/03/22 09:51:00;;;;;;;2.83;2.50;;;;;;;;;;4941606;29;20043;-69
2023/03/22 09:53:28;;;;;;;3.00;2.03;;;;;;;;;;4941976;28;20043;-70
2023/03/22 09:56:13;;;;;;;2.58;2.20;;;;;;;;;;4941764;28;20522;-70
2023/03/22 09:58:49;;;;;;;2.63;2.38;;;;;;;;;;4942433;29;20054;-69
2023/03/22 10:01:19;;;;;;;3.65;2.83;;;;;;;;;;4941448;29;20506;-69
2023/03/22 10:04:02;;;;;;;2.63;2.38;;;;;;;;;;4941331;29;20062;-71
2023/03/22 10:06:27;;;;;;;3.00;2.33;;;;;;;;;;4942756;28;20058;-70
2023/03/22 10:09:15;;;;;;;3.55;2.30;;;;;;;;;;4941621;29;20039;-69
2023/03/22 10:12:12;;;;;;;2.70;2.40;;;;;;;;;;4941934;29;20127;-70
2023/03/22 10:14:40;;;;;;;3.90;2.80;;;;;;;;;;4881199;28;20047;-72
2023/03/22 10:17:12;;;;;;;4.13;2.58;;;;;;;;;;4924647;29;20491;-72
2023/03/22 10:19:58;;;;;;;8.40;2.53;;;;;;;;;;4942274;29;20414;-71
2023/03/22 10:22:29;;;;;;;2.70;2.50;;;;;;;;;;4941872;29;20047;-71
2023/03/22 10:24:56;;;;;;;3.75;2.90;;;;;;;;;;4940554;28;20118;-71
2023/03/22 10:27:22;;;;;;;2.97;2.13;;;;;;;;;;4942334;28;20439;-71
2023/03/22 10:30:05;;;;;;;5.50;2.80;;;;;;;;;;4942486;29;20466;-72
2023/03/22 10:32:38;;;;;;;6.97;2.65;;;;;;;;;;4942085;29;20755;-71
2023/03/22 10:35:04;;;;;;;3.13;2.65;;;;;;;;;;4941255;29;20578;-71
2023/03/22 10:37:34;;;;;;;5.90;2.67;;;;;;;;;;4941369;28;20043;-72
2023/03/22 10:40:06;;;;;;;3.20;2.58;;;;;;;;;;4925073;29;20055;-72
2023/03/22 10:42:35;;;;;;;4.20;3.13;;;;;;;;;;4942046;29;20070;-70
2023/03/22 10:45:05;;;;;;;2.78;2.45;;;;;;;;;;4940918;29;20046;-71
2023/03/22 10:47:39;;;;;;;3.08;2.00;;;;;;;;;;4940397;28;20047;-71
2023/03/22 10:50:11;;;;;;;1.90;1.80;;;;;;;;;;4939871;28;20065;-71
2023/03/22 10:52:45;;;;;;;4.80;1.90;;;;;;;;;;4940315;29;20043;-71
2023/03/22 10:55:13;;;;;;;2.08;1.85;;;;;;;;;;4939091;29;20055;-71
2023/03/22 10:57:41;;;;;;;2.42;1.83;;;;;;;;;;4922417;29;20146;-71
2023/03/22 11:00:12;;;;;;;1.58;1.38;;;;;;;;;;4940700;28;20054;-71
2023/03/22 11:02:57;;;;;;;2.30;1.67;;;;;;;;;;4940579;29;20046;-71
2023/03/22 11:05:26;;;;;;;3.47;1.92;;;;;;;;;;4909542;29;20059;-71
2023/03/22 11:07:52;;;;;;;2.55;1.63;;;;;;;;;;4941782;29;20031;-71
2023/03/22 11:10:21;;;;;;;1.73;1.63;;;;;;;;;;4940699;28;20043;-70
2023/03/22 11:12:55;;;;;;;1.70;1.60;;;;;;;;;;4940936;28;20047;-71
2023/03/22 11:15:30;;;;;;;2.20;1.27;;;;;;;;;;4941387;29;20054;-70
2023/03/22 11:18:03;;;;;;;2.17;1.50;;;;;;;;;;4941507;29;20048;-70
2023/03/22 11:20:29;;;;;;;1.75;1.50;;;;;;;;;;4940866;28;20051;-71
2023/03/22 11:22:56;;;;;;;1.67;1.40;;;;;;;;;;4941051;28;20078;-70
2023/03/22 11:25:36;;;;;;;1.67;1.35;;;;;;;;;;4941227;29;20046;-70
2023/03/22 11:28:08;;;;;;;1.25;1.15;;;;;;;;;;4941628;29;20486;-70
2023/03/22 11:30:34;;;;;;;;;;;;;;;;;;4940924;29;21018;-70
2023/03/22 11:33:05;;;;;;;3.97;1.77;;;;;;;;;;4941059;28;20312;-70
2023/03/22 11:35:31;;;;;;;3.10;1.33;;;;;;;;;;4941685;28;20054;-70
2023/03/22 11:37:57;;;;;;;1.95;1.10;;;;;;;;;;4941125;29;20095;-70
2023/03/22 11:40:28;;;;;;;1.23;1.10;;;;;;;;;;4941574;29;20544;-71
2023/03/22 11:43:19;;;;;;;1.25;1.00;;;;;;;;;;4940419;28;20053;-72
2023/03/22 11:45:48;;;;;;;1.35;1.20;;;;;;;;;;4941513;28;20077;-72
2023/03/22 11:48:17;;;;;;;1.40;1.05;;;;;;;;;;4941253;29;20126;-70
2023/03/22 11:50:44;;;;;;;1.42;1.15;;;;;;;;;;4941512;29;20039;-70
2023/03/22 11:53:23;;;;;;;2.00;1.27;;;;;;;;;;4940731;28;20047;-72
2023/03/22 11:55:51;;;;;;;1.67;1.23;;;;;;;;;;4941632;28;20047;-71
2023/03/22 11:58:25;;;;;;;4.90;1.30;;;;;;;;;;4941470;29;20046;-72
2023/03/22 12:00:54;;;;;;;1.17;1.08;;;;;;;;;;4941141;29;21109;-70
2023/03/22 12:03:24;;;;;;;2.85;1.17;;;;;;;;;;4940809;29;20047;-70
2023/03/22 12:05:51;;;;;;;2.93;1.10;;;;;;;;;;4941953;28;20047;-72
2023/03/22 12:08:26;;;;;;;3.80;1.20;;;;;;;;;;4942233;28;20047;-72
2023/03/22 12:11:04;;;;;;;1.63;1.20;;;;;;;;;;4943839;29;20083;-70
2023/03/22 12:13:42;;;;;;;3.67;1.13;;;;;;;;;;4945190;29;20663;-72
2023/03/22 12:16:13;;;;;;;1.85;1.02;;;;;;;;;;4944061;28;20040;-71
2023/03/22 12:19:03;;;;;;;1.20;1.10;;;;;;;;;;4945034;28;20054;-71
2023/03/22 12:21:30;;;;;;;1.88;0.98;;;;;;;;;;4913356;29;20550;-72
2023/03/22 12:24:00;;;;;;;7.28;1.33;;;;;;;;;;4944667;29;20061;-72
2023/03/22 12:26:27;;;;;;;2.83;1.02;;;;;;;;;;4943711;28;20055;-72
2023/03/22 12:29:03;;;;;;;3.65;1.02;;;;;;;;;;4944236;28;20043;-73
2023/03/22 12:31:34;;;;;;;6.13;1.05;;;;;;;;;;4943885;29;20051;-73
2023/03/22 12:34:05;;;;;;;1.42;1.20;;;;;;;;;;4944555;29;20058;-72
2023/03/22 12:36:38;;;;;;;2.22;1.50;;;;;;;;;;4943440;29;20058;-72
2023/03/22 12:39:07;;;;;;;0.90;0.90;;;;;;;;;;4940898;28;20043;-72
2023/03/22 12:41:40;;;;;;;1.33;1.20;;;;;;;;;;4943606;29;20039;-73
2023/03/22 12:44:26;;;;;;;1.77;1.30;;;;;;;;;;4944060;29;20134;-73
2023/03/22 12:47:00;;;;;;;0.70;0.70;;;;;;;;;;4943387;29;20054;-72
2023/03/22 12:49:50;;;;;;;3.42;1.20;;;;;;;;;;4943432;28;20630;-71
2023/03/22 12:52:35;;;;;;;2.47;1.10;;;;;;;;;;4943145;28;20053;-71
2023/03/22 12:55:02;;;;;;;1.30;1.10;;;;;;;;;;4939521;29;20094;-71
2023/03/22 12:57:27;;;;;;;1.20;1.10;;;;;;;;;;4942643;29;20040;-72
2023/03/22 12:59:57;;;;;;;1.05;0.80;;;;;;;;;;4940509;28;20748;-71
2023/03/22 13:02:31;;;;;;;1.42;0.90;;;;;;;;;;4942487;28;20047;-71
2023/03/22 13:04:58;;;;;;;1.40;0.90;;;;;;;;;;4941670;29;20066;-71
2023/03/22 13:07:30;;;;;;;3.70;0.95;;;;;;;;;;4942627;29;20049;-71
2023/03/22 13:09:56;;;;;;;;;;;;;;;;;;4941532;29;20051;-71
2023/03/22 13:12:23;;;;;;;1.15;0.70;;;;;;;;;;4939344;28;19922;-70
2023/03/22 13:14:51;;;;;;;0.95;0.90;;;;;;;;;;4940834;29;20047;-72
2023/03/22 13:17:22;;;;;;;1.58;1.00;;;;;;;;;;4940893;29;20599;-71
2023/03/22 13:20:06;;;;;;;4.50;1.02;;;;;;;;;;4940338;28;20979;-69
2023/03/22 13:22:35;;;;;;;1.00;0.90;;;;;;;;;;4941123;28;20054;-69
2023/03/22 13:25:11;;;;;;;1.42;0.80;;;;;;;;;;4940452;28;20085;-69
2023/03/22 13:27:48;;;;;;;0.70;0.70;;;;;;;;;;4941550;29;20085;-71
2023/03/22 13:30:20;;;;;;;1.40;0.70;;;;;;;;;;4941167;29;20857;-70
2023/03/22 13:32:50;;;;;;;10.13;0.60;;;;;;;;;;4921488;29;20642;-71
2023/03/22 13:35:42;;;;;;;0.98;0.75;;;;;;;;;;4942245;28;21744;-70
2023/03/22 13:38:14;;;;;;;0.70;0.70;;;;;;;;;;4934408;29;20062;-71
2023/03/22 13:40:46;;;;;;;2.63;0.80;;;;;;;;;;4943348;29;20063;-70
2023/03/22 13:43:14;;;;;;;1.48;0.98;;;;;;;;;;4941977;28;20058;-69
2023/03/22 13:46:04;;;;;;;1.10;0.90;;;;;;;;;;4942927;28;20069;-71
2023/03/22 13:48:45;;;;;;;1.85;0.75;;;;;;;;;;4942339;29;20677;-70
2023/03/22 13:51:20;;;;;;;0.82;0.63;;;;;;;;;;4941633;29;20055;-69
2023/03/22 13:54:18;;;;;;;1.23;0.80;;;;;;;;;;4941508;29;20051;-71
2023/03/22 13:56:43;;;;;;;0.80;0.77;;;;;;;;;;4942526;28;20498;-70
2023/03/22 13:59:22;;;;;;;4.65;0.82;;;;;;;;;;4941218;29;20067;-70
2023/03/22 14:02:39;;;;;;;2.78;0.73;;;;;;;;;;4941320;29;20047;-70
2023/03/22 14:05:16;;;;;;;2.55;1.02;;;;;;;;;;4927873;28;20058;-70
2023/03/22 14:07:51;;;;;;;1.13;1.00;;;;;;;;;;4942648;28;20055;-71
2023/03/22 14:10:21;;;;;;;1.23;0.90;;;;;;;;;;4942279;29;20502;-71
2023/03/22 14:12:46;;;;;;;3.20;1.05;;;;;;;;;;4941624;29;20097;-71
2023/03/22 14:15:34;;;;;;;1.02;0.90;;;;;;;;;;4941776;29;20055;-71
2023/03/22 14:18:11;;;;;;;1.55;0.80;;;;;;;;;;4941985;28;20066;-69
2023/03/22 14:20:38;;;;;;;1.35;0.98;;;;;;;;;;4942353;29;20146;-72
2023/03/22 14:23:41;;;;;;;2.58;0.73;;;;;;;;;;4942062;29;20054;-72
2023/03/22 14:26:30;;;;;;;3.58;1.08;;;;;;;;;;4883000;29;20052;-71
2023/03/22 14:29:15;;;;;;;1.60;1.10;;;;;;;;;;4938710;28;20047;-71
2023/03/22 14:31:40;;;;;;;3.80;1.00;;;;;;;;;;4924398;29;20094;-71
2023/03/22 14:34:13;;;;;;;1.10;1.00;;;;;;;;;;4942301;29;20043;-70
2023/03/22 14:36:42;;;;;;;0.95;0.93;;;;;;;;;;4942121;29;20043;-71
2023/03/22 14:39:18;;;;;;;0.80;0.80;;;;;;;;;;4940307;28;20090;-74
2023/03/22 14:42:06;;;;;;;1.60;0.95;;;;;;;;;;4942071;29;20507;-72
2023/03/22 14:44:38;;;;;;;0.95;0.88;;;;;;;;;;4942225;29;20043;-73
2023/03/22 14:47:13;;;;;;;1.42;1.10;;;;;;;;;;4940311;29;20086;-72
2023/03/22 14:49:40;;;;;;;2.70;1.20;;;;;;;;;;4938881;28;20080;-71
2023/03/22 14:52:16;;;;;;;1.05;0.95;;;;;;;;;;4942029;28;20051;-73
2023/03/22 14:54:43;;;;;;;2.58;1.00;;;;;;;;;;4941664;29;20137;-72
2023/03/22 14:57:12;;;;;;;2.45;1.40;;;;;;;;;;4940667;29;20974;-72
2023/03/22 14:59:38;;;;;;;2.10;1.30;;;;;;;;;;4923743;29;20311;-73
2023/03/22 15:02:39;;;;;;;1.48;1.00;;;;;;;;;;4941874;28;20722;-71
2023/03/22 15:05:07;;;;;;;2.70;1.23;;;;;;;;;;4941031;29;20070;-71
2023/03/22 15:07:44;;;;;;;1.65;1.20;;;;;;;;;;4941544;29;20047;-71
2023/03/22 15:10:21;;;;;;;2.97;1.13;;;;;;;;;;4941931;29;20057;-72
2023/03/22 15:12:49;;;;;;;1.52;1.05;;;;;;;;;;4940204;28;20050;-73
2023/03/22 15:15:17;;;;;;;1.20;1.10;;;;;;;;;;4940867;28;20055;-71
2023/03/22 15:17:44;;;;;;;1.60;0.90;;;;;;;;;;4942011;29;20118;-71
2023/03/22 15:20:16;;;;;;;1.63;1.00;;;;;;;;;;4941363;29;20059;-72